Time;durP1;ratioP1;P1;durP2;ratioP2;P2;SDS_P1;SDS_P2;PMS_P1;PMS_P2;Temp;Humidity;BMP_temperature;BMP_pressure;BME280_temperature;BME280_humidity;BME280_pressure;Samples;Min_cycle;Max_cycle;Signal;HPM_P1;HPM_P2
2021/04/25 00:01:52;;;;;;;13.27;12.43;;;9.30;97.10;;;;;;5053873;28;20475;-69
2021/04/25 00:04:20;;;;;;;14.50;13.20;;;9.30;97.40;;;;;;5053697;28;20946;-67
2021/04/25 00:06:46;;;;;;;14.00;12.87;;;9.30;97.40;;;;;;5053642;28;20448;-67
2021/04/25 00:09:13;;;;;;;14.67;13.03;;;9.40;97.40;;;;;;5053749;28;21103;-68
2021/04/25 00:11:40;;;;;;;13.33;12.30;;;9.40;97.60;;;;;;5053714;28;20445;-68
2021/04/25 00:14:07;;;;;;;14.67;13.47;;;9.30;97.70;;;;;;5053740;28;20455;-70
2021/04/25 00:16:35;;;;;;;12.40;11.50;;;9.20;98.00;;;;;;5053592;28;20452;-67
2021/04/25 00:19:04;;;;;;;14.57;13.60;;;9.10;98.30;;;;;;5053244;28;20448;-68
2021/04/25 00:21:30;;;;;;;13.47;12.40;;;9.10;98.50;;;;;;5053416;28;20460;-67
2021/04/25 00:23:56;;;;;;;14.07;12.97;;;9.10;98.80;;;;;;5053517;28;20448;-68
2021/04/25 00:26:22;;;;;;;13.17;12.27;;;9.10;98.90;;;;;;5053335;28;20961;-67
2021/04/25 00:28:49;;;;;;;13.50;12.50;;;9.20;99.10;;;;;;5053025;28;20513;-69
2021/04/25 00:31:15;;;;;;;14.23;13.23;;;9.10;99.10;;;;;;5052773;28;20530;-68
2021/04/25 00:33:42;;;;;;;14.23;13.03;;;9.00;99.40;;;;;;5053257;28;20476;-69
2021/04/25 00:36:09;;;;;;;14.67;13.43;;;8.90;99.70;;;;;;5053171;28;20444;-68
2021/04/25 00:38:35;;;;;;;15.77;14.47;;;8.90;99.90;;;;;;5052843;28;20482;-68
2021/04/25 00:41:01;;;;;;;14.57;13.47;;;8.90;99.90;;;;;;5052913;28;20618;-68
2021/04/25 00:43:27;;;;;;;14.27;13.27;;;8.80;99.90;;;;;;5053077;28;20961;-68
2021/04/25 00:45:54;;;;;;;13.10;12.30;;;8.80;99.90;;;;;;5052979;28;20452;-68
2021/04/25 00:48:21;;;;;;;15.70;14.40;;;8.80;99.90;;;;;;5052931;28;20871;-69
2021/04/25 00:50:48;;;;;;;12.83;12.03;;;8.70;99.90;;;;;;5044750;28;20456;-68
2021/04/25 00:53:14;;;;;;;12.97;12.17;;;8.70;99.90;;;;;;5033100;28;20449;-68
2021/04/25 00:55:41;;;;;;;14.10;13.10;;;8.60;99.90;;;;;;5032621;28;20445;-67
2021/04/25 00:58:07;;;;;;;14.87;13.73;;;8.50;99.90;;;;;;5033138;28;20457;-67
2021/04/25 01:00:33;;;;;;;15.50;14.17;;;8.50;99.90;;;;;;5032710;28;20489;-67
2021/04/25 01:03:01;;;;;;;14.60;13.67;;;8.40;99.90;;;;;;5032995;28;20446;-67
2021/04/25 01:05:27;;;;;;;14.77;13.57;;;8.30;99.90;;;;;;5032833;28;20457;-68
2021/04/25 01:07:54;;;;;;;13.53;12.73;;;8.40;99.90;;;;;;5032509;28;20449;-68
2021/04/25 01:10:20;;;;;;;14.37;13.00;;;8.40;99.90;;;;;;5032603;28;20452;-68
2021/04/25 01:12:47;;;;;;;14.43;13.60;;;8.30;99.90;;;;;;5032591;28;20449;-68
2021/04/25 01:15:16;;;;;;;13.53;12.60;;;8.30;99.90;;;;;;5032403;28;20814;-67
2021/04/25 01:17:44;;;;;;;14.93;11.87;;;8.30;99.90;;;;;;5032353;28;20505;-68
2021/04/25 01:20:13;;;;;;;14.20;13.10;;;8.40;99.90;;;;;;5032578;28;20481;-68
2021/04/25 01:22:40;;;;;;;14.67;13.30;;;8.40;99.90;;;;;;5032628;28;20453;-68
2021/04/25 01:25:08;;;;;;;14.17;13.13;;;8.40;99.90;;;;;;5032144;28;20460;-68
2021/04/25 01:27:35;;;;;;;12.93;12.10;;;8.30;99.90;;;;;;5032360;28;20464;-68
2021/04/25 01:30:02;;;;;;;14.17;12.97;;;8.20;99.90;;;;;;5031970;28;20503;-68
2021/04/25 01:32:29;;;;;;;13.43;12.43;;;8.10;99.90;;;;;;5032201;28;20465;-68
2021/04/25 01:34:56;;;;;;;13.47;12.50;;;8.20;99.90;;;;;;5032221;28;20460;-68
2021/04/25 01:37:22;;;;;;;14.47;13.10;;;8.10;99.90;;;;;;5032100;28;20456;-67
2021/04/25 01:39:50;;;;;;;13.30;12.47;;;8.10;99.90;;;;;;5031679;28;20815;-68
2021/04/25 01:42:16;;;;;;;15.77;12.90;;;8.10;99.90;;;;;;5031119;28;20460;-68
2021/04/25 01:44:42;;;;;;;13.37;12.30;;;8.10;99.90;;;;;;5032100;28;20457;-69
2021/04/25 01:47:09;;;;;;;15.13;14.03;;;8.00;99.90;;;;;;5032086;28;20495;-68
2021/04/25 01:49:35;;;;;;;13.73;12.60;;;7.90;99.90;;;;;;5031830;28;20959;-68
2021/04/25 01:52:02;;;;;;;14.30;13.30;;;7.90;99.90;;;;;;5050046;28;20478;-68
2021/04/25 01:54:28;;;;;;;13.30;12.20;;;7.90;99.90;;;;;;5051637;28;20497;-69
2021/04/25 01:56:55;;;;;;;13.73;12.80;;;7.90;99.90;;;;;;5051671;28;20448;-68
2021/04/25 01:59:21;;;;;;;14.27;13.17;;;7.80;99.90;;;;;;5051539;28;20450;-68
2021/04/25 02:01:48;;;;;;;13.47;12.67;;;7.70;99.90;;;;;;5051347;28;20945;-68
2021/04/25 02:04:15;;;;;;;13.93;13.13;;;7.70;99.90;;;;;;5051820;28;20462;-68
2021/04/25 02:06:43;;;;;;;14.00;13.00;;;7.50;99.90;;;;;;5051227;28;21205;-68
2021/04/25 02:09:10;;;;;;;12.97;12.20;;;7.50;99.90;;;;;;5051188;28;20991;-68
2021/04/25 02:11:37;;;;;;;13.67;12.57;;;7.40;99.90;;;;;;5051280;28;20452;-67
2021/04/25 02:14:05;;;;;;;14.73;13.50;;;7.30;99.90;;;;;;5051561;28;20993;-68
2021/04/25 02:16:31;;;;;;;14.77;13.70;;;7.30;99.90;;;;;;5051037;28;20454;-68
2021/04/25 02:18:58;;;;;;;13.40;12.53;;;7.30;99.90;;;;;;5051261;28;20448;-68
2021/04/25 02:21:25;;;;;;;13.13;12.13;;;7.20;99.90;;;;;;5050920;28;20487;-68
2021/04/25 02:23:51;;;;;;;13.23;12.33;;;7.10;99.90;;;;;;5050937;28;20645;-67
2021/04/25 02:26:17;;;;;;;15.17;14.07;;;7.10;99.90;;;;;;5051250;28;20904;-67
2021/04/25 02:28:43;;;;;;;14.60;13.40;;;7.10;99.90;;;;;;5051429;28;20468;-67
2021/04/25 02:31:10;;;;;;;14.33;13.30;;;7.00;99.90;;;;;;5051037;28;20479;-69
2021/04/25 02:33:37;;;;;;;14.93;13.73;;;7.00;99.90;;;;;;5050859;28;20494;-69
2021/04/25 02:36:04;;;;;;;14.90;13.93;;;6.90;99.90;;;;;;5050962;28;20446;-69
2021/04/25 02:38:31;;;;;;;14.47;13.33;;;6.90;99.90;;;;;;5051018;28;20448;-69
2021/04/25 02:40:57;;;;;;;14.50;13.40;;;6.90;99.90;;;;;;5051064;28;20490;-69
2021/04/25 02:43:24;;;;;;;14.40;13.20;;;6.80;99.90;;;;;;5050887;28;20857;-68
2021/04/25 02:45:50;;;;;;;14.43;13.07;;;6.70;99.90;;;;;;5051070;28;20742;-68
2021/04/25 02:48:17;;;;;;;13.57;12.57;;;6.80;99.90;;;;;;5050939;28;20450;-68
2021/04/25 02:50:45;;;;;;;13.57;12.60;;;6.90;99.90;;;;;;5043320;28;20440;-68
2021/04/25 02:53:14;;;;;;;13.57;12.67;;;7.00;99.90;;;;;;5031814;28;20455;-68
2021/04/25 02:55:42;;;;;;;14.63;13.53;;;7.10;99.90;;;;;;5035228;28;20456;-68
2021/04/25 02:58:09;;;;;;;15.13;13.90;;;7.10;99.90;;;;;;5034988;28;20461;-68
2021/04/25 03:00:35;;;;;;;14.67;13.70;;;7.10;99.90;;;;;;5034954;28;20495;-69
2021/04/25 03:03:02;;;;;;;13.60;12.60;;;7.10;99.90;;;;;;5034866;28;21000;-70
2021/04/25 03:05:29;;;;;;;18.10;12.50;;;7.10;99.90;;;;;;5035034;28;20445;-68
2021/04/25 03:07:55;;;;;;;13.23;12.30;;;7.10;99.90;;;;;;5034905;28;20451;-68
2021/04/25 03:10:25;;;;;;;13.77;12.53;;;7.00;99.90;;;;;;5034654;28;20459;-67
2021/04/25 03:12:52;;;;;;;13.37;12.50;;;7.00;99.90;;;;;;5034899;28;20461;-69
2021/04/25 03:15:19;;;;;;;14.80;13.60;;;6.90;99.90;;;;;;5034749;28;20459;-69
2021/04/25 03:17:46;;;;;;;14.53;13.43;;;6.90;99.90;;;;;;5034626;28;20456;-67
2021/04/25 03:20:14;;;;;;;14.67;13.67;;;6.90;99.90;;;;;;5034670;28;20484;-68
2021/04/25 03:22:42;;;;;;;14.27;13.30;;;6.80;99.90;;;;;;5034262;28;20452;-68
2021/04/25 03:25:10;;;;;;;14.90;13.90;;;6.80;99.90;;;;;;5034418;28;20448;-68
2021/04/25 03:27:36;;;;;;;13.60;12.43;;;6.80;99.90;;;;;;5048300;28;20453;-68
2021/04/25 03:30:04;;;;;;;14.93;13.83;;;6.80;99.90;;;;;;5053289;28;20452;-68
2021/04/25 03:32:31;;;;;;;14.73;13.60;;;6.70;99.90;;;;;;5054177;28;20482;-68
2021/04/25 03:34:57;;;;;;;13.77;12.60;;;6.70;99.90;;;;;;5054571;28;20473;-68
2021/04/25 03:37:23;;;;;;;15.03;13.73;;;6.70;99.90;;;;;;5054392;28;20452;-68
2021/04/25 03:39:50;;;;;;;14.60;13.33;;;6.70;99.90;;;;;;5053936;28;20489;-67
2021/04/25 03:42:16;;;;;;;15.40;14.23;;;6.70;99.90;;;;;;5054057;28;20454;-67
2021/04/25 03:44:42;;;;;;;14.97;13.77;;;6.60;99.90;;;;;;5054314;28;20453;-67
2021/04/25 03:47:09;;;;;;;14.73;13.77;;;6.50;99.90;;;;;;5053787;28;20452;-67
2021/04/25 03:49:35;;;;;;;15.40;14.20;;;6.50;99.90;;;;;;5054058;28;20534;-67
2021/04/25 03:52:01;;;;;;;14.17;12.90;;;6.50;99.90;;;;;;5054030;28;20458;-67
2021/04/25 03:54:27;;;;;;;14.47;13.47;;;6.50;99.90;;;;;;5053986;28;20448;-67
2021/04/25 03:56:54;;;;;;;15.17;14.07;;;6.50;99.90;;;;;;5054043;28;20514;-68
2021/04/25 03:59:20;;;;;;;14.87;13.73;;;6.50;99.90;;;;;;5053899;28;20780;-68
2021/04/25 04:01:47;;;;;;;14.40;13.17;;;6.40;99.90;;;;;;5053681;28;20458;-68
2021/04/25 04:04:13;;;;;;;14.13;13.10;;;6.40;99.90;;;;;;5053432;28;20455;-67
2021/04/25 04:06:39;;;;;;;15.17;13.73;;;6.30;99.90;;;;;;5053407;28;20449;-68
2021/04/25 04:09:05;;;;;;;15.13;13.77;;;6.40;99.90;;;;;;5053766;28;20475;-69
2021/04/25 04:11:32;;;;;;;13.50;12.40;;;6.40;99.90;;;;;;5053676;28;20870;-69
2021/04/25 04:13:59;;;;;;;14.97;13.77;;;6.40;99.90;;;;;;5053561;28;20458;-69
2021/04/25 04:16:26;;;;;;;15.17;13.77;;;6.30;99.90;;;;;;5053691;28;20478;-69
2021/04/25 04:18:52;;;;;;;16.73;13.90;;;6.30;99.90;;;;;;5053640;28;20479;-70
2021/04/25 04:21:18;;;;;;;14.67;13.67;;;6.20;99.90;;;;;;5053473;28;20486;-69
2021/04/25 04:23:45;;;;;;;15.00;13.90;;;6.20;99.90;;;;;;5053577;28;20444;-70
2021/04/25 04:26:11;;;;;;;15.83;14.53;;;6.10;99.90;;;;;;5053226;28;20462;-69
2021/04/25 04:28:37;;;;;;;14.60;13.40;;;6.00;99.90;;;;;;5053633;28;20521;-70
2021/04/25 04:31:05;;;;;;;14.83;13.60;;;6.00;99.90;;;;;;5053506;28;20616;-69
2021/04/25 04:33:31;;;;;;;14.90;13.70;;;6.10;99.90;;;;;;5053308;28;20487;-69
2021/04/25 04:35:57;;;;;;;15.90;14.60;;;6.10;99.90;;;;;;5053083;28;20822;-70
2021/04/25 04:38:23;;;;;;;16.33;14.77;;;6.10;99.90;;;;;;5053126;28;20463;-70
2021/04/25 04:40:49;;;;;;;16.10;14.67;;;6.20;99.90;;;;;;5052881;28;20854;-69
2021/04/25 04:43:16;;;;;;;14.80;13.40;;;6.30;99.90;;;;;;5053282;28;20453;-68
2021/04/25 04:45:42;;;;;;;13.60;12.53;;;6.40;99.90;;;;;;5053182;28;20458;-70
2021/04/25 04:48:09;;;;;;;14.40;13.40;;;6.40;99.90;;;;;;5052880;28;20481;-69
2021/04/25 04:50:35;;;;;;;15.23;13.93;;;6.40;99.90;;;;;;5053082;28;20455;-69
2021/04/25 04:53:01;;;;;;;15.83;14.40;;;6.50;99.90;;;;;;5052791;28;20802;-67
2021/04/25 04:55:27;;;;;;;13.83;12.83;;;6.50;99.90;;;;;;5052861;28;20452;-66
2021/04/25 04:57:54;;;;;;;15.53;14.07;;;6.50;99.90;;;;;;5052682;28;20460;-67
2021/04/25 05:00:20;;;;;;;13.80;12.87;;;6.60;99.90;;;;;;5052574;28;20489;-68
2021/04/25 05:02:46;;;;;;;13.57;12.47;;;6.70;99.90;;;;;;5052523;28;20456;-68
2021/04/25 05:05:14;;;;;;;14.20;13.17;;;6.70;99.90;;;;;;5052769;28;20453;-68
2021/04/25 05:07:40;;;;;;;14.70;13.50;;;6.90;99.90;;;;;;5052626;28;20536;-68
2021/04/25 05:10:07;;;;;;;14.33;13.20;;;7.20;99.90;;;;;;5051810;28;20464;-69
2021/04/25 05:12:33;;;;;;;14.27;13.17;;;7.60;99.90;;;;;;5052038;28;20448;-67
2021/04/25 05:15:00;;;;;;;13.37;12.47;;;8.00;99.90;;;;;;5052359;28;20448;-67
2021/04/25 05:17:26;;;;;;;14.37;13.27;;;8.50;99.90;;;;;;5052362;28;20447;-68
2021/04/25 05:19:53;;;;;;;14.80;13.80;;;8.90;99.90;;;;;;5052517;28;20833;-68
2021/04/25 05:22:20;;;;;;;15.10;13.90;;;9.40;99.90;;;;;;5052205;28;20448;-69
2021/04/25 05:24:46;;;;;;;15.93;14.40;;;9.80;99.90;;;;;;5052193;28;20451;-69
2021/04/25 05:27:12;;;;;;;16.90;15.37;;;10.10;99.90;;;;;;5051969;28;20450;-68
2021/04/25 05:29:38;;;;;;;20.30;18.47;;;10.30;99.90;;;;;;5052086;28;20950;-68
2021/04/25 05:32:05;;;;;;;27.37;24.53;;;10.50;99.90;;;;;;5051873;28;20471;-68
2021/04/25 05:34:32;;;;;;;23.00;20.50;;;10.80;99.40;;;;;;5051787;28;20487;-69
2021/04/25 05:36:58;;;;;;;18.97;17.47;;;11.00;98.70;;;;;;5052121;28;20466;-68
2021/04/25 05:39:25;;;;;;;16.87;15.37;;;11.20;98.00;;;;;;5051621;28;20444;-69
2021/04/25 05:41:51;;;;;;;15.80;14.50;;;11.10;98.00;;;;;;5051862;28;20509;-69
2021/04/25 05:44:17;;;;;;;15.60;14.40;;;10.90;98.10;;;;;;5052028;28;20463;-69
2021/04/25 05:46:44;;;;;;;14.53;13.53;;;11.40;97.80;;;;;;5051740;28;20864;-69
2021/04/25 05:49:10;;;;;;;14.97;13.90;;;11.70;96.70;;;;;;5051910;28;20513;-70
2021/04/25 05:51:36;;;;;;;14.97;13.80;;;11.90;96.10;;;;;;5051412;28;21049;-70
2021/04/25 05:54:03;;;;;;;15.67;14.47;;;12.40;95.60;;;;;;5051721;28;20432;-69
2021/04/25 05:56:31;;;;;;;15.73;14.57;;;12.70;94.40;;;;;;5051777;28;20468;-69
2021/04/25 05:58:57;;;;;;;15.70;14.40;;;12.80;94.10;;;;;;5051458;28;20947;-69
2021/04/25 06:01:24;;;;;;;15.03;14.13;;;12.80;93.50;;;;;;5051363;28;20476;-68
2021/04/25 06:03:50;;;;;;;14.80;13.80;;;12.60;94.40;;;;;;5051501;28;20451;-69
2021/04/25 06:06:17;;;;;;;15.87;14.40;;;12.90;93.80;;;;;;5051475;28;20949;-68
2021/04/25 06:08:43;;;;;;;14.20;13.30;;;13.10;93.20;;;;;;5051535;28;20470;-69
2021/04/25 06:11:10;;;;;;;15.03;13.73;;;13.40;93.00;;;;;;5051195;28;20976;-69
2021/04/25 06:13:37;;;;;;;15.63;14.50;;;13.70;92.00;;;;;;5051263;28;20809;-68
2021/04/25 06:16:04;;;;;;;15.27;14.27;;;13.80;92.00;;;;;;5051395;28;20456;-69
2021/04/25 06:18:30;;;;;;;16.03;14.77;;;13.70;91.70;;;;;;5051529;28;20448;-68
2021/04/25 06:20:57;;;;;;;14.83;13.80;;;14.10;91.40;;;;;;5051368;28;20480;-69
2021/04/25 06:23:23;;;;;;;15.33;14.30;;;14.40;90.70;;;;;;5051621;28;20460;-69
2021/04/25 06:25:49;;;;;;;16.33;14.87;;;14.40;90.50;;;;;;5051178;28;20494;-69
2021/04/25 06:28:16;;;;;;;15.67;14.50;;;14.40;90.20;;;;;;5050755;28;20456;-69
2021/04/25 06:30:43;;;;;;;15.07;14.00;;;14.50;90.00;;;;;;5051628;28;20452;-70
2021/04/25 06:33:09;;;;;;;17.40;16.30;;;14.90;89.30;;;;;;5050773;28;20545;-69
2021/04/25 06:35:35;;;;;;;15.90;14.70;;;15.00;88.10;;;;;;5051296;28;20510;-70
2021/04/25 06:38:02;;;;;;;16.53;15.13;;;15.60;87.00;;;;;;5051302;28;20800;-70
2021/04/25 06:40:28;;;;;;;18.27;16.73;;;16.00;85.10;;;;;;5050998;28;20491;-70
2021/04/25 06:42:54;;;;;;;16.70;15.30;;;16.20;83.20;;;;;;5051291;28;20452;-70
2021/04/25 06:45:22;;;;;;;18.03;16.67;;;16.40;82.00;;;;;;5051151;28;20518;-68
2021/04/25 06:47:49;;;;;;;16.27;15.17;;;16.50;81.40;;;;;;5050898;28;20787;-69
2021/04/25 06:50:16;;;;;;;17.07;15.63;;;16.80;80.40;;;;;;5047175;28;20460;-70
2021/04/25 06:52:44;;;;;;;15.70;14.80;;;17.10;79.00;;;;;;5030751;28;20445;-69
2021/04/25 06:55:14;;;;;;;17.50;16.00;;;17.30;78.10;;;;;;5031342;28;20460;-69
2021/04/25 06:57:41;;;;;;;17.37;16.17;;;17.60;77.00;;;;;;5031233;28;20545;-70
2021/04/25 07:00:09;;;;;;;17.77;16.53;;;17.90;76.20;;;;;;5030919;28;20487;-70
2021/04/25 07:02:35;;;;;;;18.47;16.90;;;18.10;74.00;;;;;;5030673;28;20531;-69
2021/04/25 07:05:03;;;;;;;18.03;16.63;;;18.10;73.50;;;;;;5031043;28;20445;-70
2021/04/25 07:07:29;;;;;;;17.77;16.33;;;17.90;74.50;;;;;;5030918;28;20453;-69
2021/04/25 07:09:56;;;;;;;18.40;17.00;;;18.40;72.70;;;;;;5031220;28;20445;-69
2021/04/25 07:12:22;;;;;;;18.23;16.83;;;18.50;71.70;;;;;;5031012;28;20451;-69
2021/04/25 07:14:48;;;;;;;18.20;16.90;;;18.60;70.70;;;;;;5030607;28;20460;-69
2021/04/25 07:17:15;;;;;;;17.33;16.27;;;18.80;71.10;;;;;;5030854;28;20506;-69
2021/04/25 07:19:41;;;;;;;18.80;17.50;;;19.00;68.70;;;;;;5030810;28;20460;-69
2021/04/25 07:22:08;;;;;;;18.10;16.70;;;18.90;68.00;;;;;;5030931;28;20456;-69
2021/04/25 07:24:34;;;;;;;17.33;15.97;;;18.90;67.60;;;;;;5030698;28;20453;-69
2021/04/25 07:27:01;;;;;;;18.23;16.93;;;18.90;68.80;;;;;;5030992;28;20808;-69
2021/04/25 07:29:28;;;;;;;18.47;17.07;;;19.50;67.20;;;;;;5030899;28;20480;-69
2021/04/25 07:31:55;;;;;;;17.93;16.53;;;19.50;66.80;;;;;;5030592;28;20503;-69
2021/04/25 07:34:21;;;;;;;17.80;16.43;;;19.90;64.50;;;;;;5030499;28;20488;-69
2021/04/25 07:36:47;;;;;;;19.00;17.30;;;20.30;63.60;;;;;;5030433;28;20460;-69
2021/04/25 07:39:14;;;;;;;20.30;18.87;;;20.50;61.80;;;;;;5031790;28;20444;-70
2021/04/25 07:41:41;;;;;;;18.30;16.90;;;20.60;61.80;;;;;;5038614;28;21017;-70
2021/04/25 07:44:07;;;;;;;19.33;17.83;;;20.80;60.40;;;;;;5041932;28;20476;-69
2021/04/25 07:46:33;;;;;;;20.87;19.13;;;20.10;60.40;;;;;;5043830;28;20440;-69
2021/04/25 07:49:00;;;;;;;19.93;18.43;;;18.90;63.50;;;;;;5034173;28;20980;-69
2021/04/25 07:51:26;;;;;;;19.80;17.97;;;19.00;63.90;;;;;;5047815;28;20448;-70
2021/04/25 07:53:54;;;;;;;20.67;19.00;;;19.40;63.20;;;;;;5045462;28;20472;-70
2021/04/25 07:56:21;;;;;;;19.07;17.60;;;20.20;61.30;;;;;;5034793;28;20452;-70
2021/04/25 07:58:47;;;;;;;19.47;17.70;;;20.70;60.10;;;;;;5033856;28;20453;-70
2021/04/25 08:01:15;;;;;;;20.03;18.37;;;21.10;58.90;;;;;;5034288;28;20882;-70
2021/04/25 08:03:41;;;;;;;20.80;19.10;;;20.50;59.90;;;;;;5034155;28;20986;-70
2021/04/25 08:06:07;;;;;;;18.90;17.30;;;20.40;59.30;;;;;;5034318;28;20452;-70
2021/04/25 08:08:33;;;;;;;21.67;19.80;;;20.60;59.40;;;;;;5039627;28;20475;-70
2021/04/25 08:11:00;;;;;;;20.40;18.90;;;20.50;58.80;;;;;;5054138;28;20440;-70
2021/04/25 08:13:27;;;;;;;20.63;18.67;;;20.70;58.60;;;;;;5053870;28;20814;-70
2021/04/25 08:15:53;;;;;;;20.33;18.70;;;20.80;59.10;;;;;;5053949;28;20448;-70
2021/04/25 08:18:20;;;;;;;19.57;17.83;;;21.00;58.10;;;;;;5053667;28;20456;-71
2021/04/25 08:20:46;;;;;;;20.90;19.30;;;21.10;57.90;;;;;;5053736;28;20495;-69
2021/04/25 08:23:12;;;;;;;19.87;18.57;;;21.20;57.40;;;;;;5053789;28;20995;-69
2021/04/25 08:25:38;;;;;;;21.03;19.30;;;22.10;56.00;;;;;;5053339;28;20448;-69
2021/04/25 08:28:05;;;;;;;20.00;18.70;;;22.20;56.20;;;;;;5053277;28;20455;-69
2021/04/25 08:30:34;;;;;;;21.23;19.73;;;22.30;55.50;;;;;;5053394;28;20509;-69
2021/04/25 08:33:00;;;;;;;20.83;18.93;;;22.20;55.90;;;;;;5053032;28;20468;-69
2021/04/25 08:35:26;;;;;;;21.27;19.50;;;22.70;54.30;;;;;;5053065;28;20934;-69
2021/04/25 08:37:53;;;;;;;20.07;18.40;;;22.80;53.60;;;;;;5052998;28;20470;-70
2021/04/25 08:40:21;;;;;;;20.60;18.97;;;22.00;54.70;;;;;;5053008;28;20490;-69
2021/04/25 08:42:47;;;;;;;21.23;19.60;;;21.10;55.40;;;;;;5053098;28;20482;-70
2021/04/25 08:45:15;;;;;;;19.43;18.13;;;21.80;55.30;;;;;;5053049;28;20510;-70
2021/04/25 08:47:57;;;;;;;20.43;18.73;;;22.00;54.00;;;;;;5052747;28;20452;-69
2021/04/25 08:50:24;;;;;;;20.60;18.90;;;21.90;54.40;;;;;;5052706;28;20448;-69
2021/04/25 08:52:51;;;;;;;19.73;18.20;;;21.60;54.50;;;;;;5052569;28;20444;-69
2021/04/25 08:55:17;;;;;;;21.17;19.63;;;22.00;53.80;;;;;;5052709;28;20456;-69
2021/04/25 08:57:44;;;;;;;21.03;19.53;;;22.40;54.10;;;;;;5052665;28;20463;-70
2021/04/25 09:00:12;;;;;;;20.27;18.73;;;22.50;53.60;;;;;;5051664;28;20456;-68
2021/04/25 09:02:38;;;;;;;19.80;18.30;;;22.20;53.60;;;;;;5052153;28;20448;-68
2021/04/25 09:05:06;;;;;;;24.13;19.23;;;22.30;51.50;;;;;;5052456;28;20662;-69
2021/04/25 09:07:32;;;;;;;20.00;18.70;;;22.20;51.20;;;;;;5051689;28;20452;-68
2021/04/25 09:10:03;;;;;;;17.83;16.53;;;21.70;52.90;;;;;;5052057;28;20451;-68
2021/04/25 09:12:36;;;;;;;18.30;16.80;;;22.50;51.50;;;;;;5052052;28;20451;-68
2021/04/25 09:15:05;;;;;;;21.53;19.37;;;21.60;50.40;;;;;;5052241;28;20456;-68
2021/04/25 09:17:48;;;;;;;20.50;18.90;;;21.40;51.70;;;;;;5051770;28;20658;-68
2021/04/25 09:20:16;;;;;;;18.87;17.30;;;21.80;52.00;;;;;;5052014;28;20511;-68
2021/04/25 09:22:45;;;;;;;17.33;16.10;;;21.30;51.20;;;;;;5046684;28;20453;-68
2021/04/25 09:25:14;;;;;;;18.90;17.37;;;20.80;50.90;;;;;;5031909;28;20445;-68
2021/04/25 09:27:41;;;;;;;17.70;16.10;;;21.60;51.40;;;;;;5032103;28;20457;-67
2021/04/25 09:30:09;;;;;;;17.60;16.33;;;21.40;50.20;;;;;;5032040;28;20471;-68
2021/04/25 09:32:35;;;;;;;17.43;16.20;;;21.90;50.90;;;;;;5031322;28;20479;-68
2021/04/25 09:35:10;;;;;;;17.17;15.77;;;21.40;49.80;;;;;;5031485;28;20479;-68
2021/04/25 09:37:41;;;;;;;18.63;17.33;;;20.90;51.10;;;;;;5031568;28;20452;-68
2021/04/25 09:40:09;;;;;;;18.87;17.23;;;21.50;51.10;;;;;;5031785;28;20552;-68
2021/04/25 09:42:57;;;;;;;17.60;16.40;;;22.00;50.70;;;;;;5031332;28;20463;-67
2021/04/25 09:45:25;;;;;;;17.70;16.60;;;22.60;48.90;;;;;;5031415;28;20445;-68
2021/04/25 09:47:51;;;;;;;18.40;17.00;;;22.10;49.60;;;;;;5031484;28;20854;-68
2021/04/25 09:50:21;;;;;;;19.57;18.07;;;22.30;49.00;;;;;;5035419;28;20490;-68
2021/04/25 09:52:50;;;;;;;19.20;17.80;;;22.70;48.60;;;;;;5051379;28;20447;-68
2021/04/25 09:55:26;;;;;;;18.87;17.57;;;23.00;48.30;;;;;;5051171;28;20448;-67
2021/04/25 09:57:54;;;;;;;18.67;17.00;;;23.30;48.20;;;;;;5049061;28;20443;-67
2021/04/25 10:00:21;;;;;;;18.90;17.50;;;22.80;47.30;;;;;;5051296;28;20487;-68
2021/04/25 10:02:59;;;;;;;18.40;17.20;;;22.90;47.20;;;;;;5050676;28;20830;-68
2021/04/25 10:05:27;;;;;;;18.57;17.27;;;22.30;49.20;;;;;;5051352;28;20814;-68
2021/04/25 10:07:54;;;;;;;18.47;16.70;;;21.90;49.00;;;;;;5051283;28;20452;-68
2021/04/25 10:10:21;;;;;;;18.20;17.10;;;22.10;48.80;;;;;;5051159;28;20461;-68
2021/04/25 10:12:48;;;;;;;18.30;16.90;;;22.40;49.20;;;;;;5051424;28;20539;-68
2021/04/25 10:15:15;;;;;;;17.17;16.07;;;22.90;48.10;;;;;;5051162;28;20451;-68
2021/04/25 10:17:43;;;;;;;20.57;18.80;;;23.70;47.40;;;;;;5051457;28;20448;-68
2021/04/25 10:20:11;;;;;;;18.70;17.50;;;24.50;47.00;;;;;;5051308;28;20456;-68
2021/04/25 10:22:40;;;;;;;16.20;15.10;;;24.60;46.50;;;;;;5051203;28;20456;-67
2021/04/25 10:25:10;;;;;;;17.33;16.13;;;23.50;44.90;;;;;;5050948;28;20460;-68
2021/04/25 10:27:39;;;;;;;18.70;17.50;;;23.20;46.70;;;;;;5051175;28;20949;-68
2021/04/25 10:30:07;;;;;;;18.33;17.03;;;24.10;46.60;;;;;;5051246;28;20451;-68
2021/04/25 10:32:35;;;;;;;19.37;17.80;;;23.60;47.00;;;;;;5050827;28;20476;-68
2021/04/25 10:35:20;;;;;;;17.67;16.67;;;23.80;46.60;;;;;;5050789;28;20993;-67
2021/04/25 10:37:47;;;;;;;17.93;16.73;;;24.50;46.50;;;;;;5051043;28;20502;-68
2021/04/25 10:40:29;;;;;;;17.50;16.30;;;25.40;44.90;;;;;;5050856;28;20459;-68
2021/04/25 10:42:57;;;;;;;17.17;16.17;;;24.00;44.60;;;;;;5051151;28;20885;-68
2021/04/25 10:45:31;;;;;;;16.63;15.43;;;23.50;46.60;;;;;;5050819;28;20448;-68
2021/04/25 10:48:27;;;;;;;15.23;14.43;;;23.70;44.40;;;;;;5050923;28;20458;-69
2021/04/25 10:50:55;;;;;;;17.27;16.17;;;24.40;42.50;;;;;;5050766;28;20455;-68
2021/04/25 10:53:27;;;;;;;16.30;15.27;;;23.60;43.90;;;;;;5050731;28;20455;-67
2021/04/25 10:56:21;;;;;;;17.37;16.27;;;24.30;43.90;;;;;;5050760;28;20470;-67
2021/04/25 10:58:49;;;;;;;17.03;15.93;;;24.50;43.60;;;;;;5028518;28;20479;-67
2021/04/25 11:01:46;;;;;;;16.20;15.10;;;24.40;44.40;;;;;;5050511;28;20476;-67
2021/04/25 11:04:12;;;;;;;16.70;15.43;;;25.00;43.50;;;;;;5050523;28;20486;-68
2021/04/25 11:06:39;;;;;;;18.27;16.40;;;25.00;43.20;;;;;;5050487;28;20566;-68
2021/04/25 11:09:05;;;;;;;17.10;15.80;;;24.00;42.50;;;;;;5050482;28;20518;-69
2021/04/25 11:11:34;;;;;;;17.87;16.47;;;24.20;43.80;;;;;;5050454;28;20499;-69
2021/04/25 11:14:01;;;;;;;16.53;15.53;;;24.00;43.70;;;;;;5051454;28;20502;-68
2021/04/25 11:16:28;;;;;;;17.23;15.90;;;24.10;44.80;;;;;;5054593;28;20852;-68
2021/04/25 11:18:59;;;;;;;19.23;17.93;;;23.90;44.20;;;;;;5054587;28;20451;-68
2021/04/25 11:21:49;;;;;;;16.37;15.37;;;23.60;43.90;;;;;;5054111;28;20525;-68
2021/04/25 11:24:36;;;;;;;16.20;15.17;;;23.80;44.20;;;;;;5054620;28;20443;-67
2021/04/25 11:27:08;;;;;;;15.40;14.50;;;23.50;44.10;;;;;;5054076;28;20447;-68
2021/04/25 11:29:53;;;;;;;15.07;14.13;;;23.30;43.40;;;;;;5054296;28;20546;-68
2021/04/25 11:32:24;;;;;;;15.57;14.57;;;22.60;44.50;;;;;;5053999;28;20459;-68
2021/04/25 11:35:26;;;;;;;14.23;13.50;;;23.40;43.80;;;;;;5054746;28;20498;-68
2021/04/25 11:37:52;;;;;;;15.27;14.27;;;24.60;42.50;;;;;;5053994;28;20444;-70
2021/04/25 11:40:23;;;;;;;14.97;13.83;;;25.30;41.40;;;;;;5053863;28;20794;-68
2021/04/25 11:42:51;;;;;;;16.43;15.27;;;25.90;40.30;;;;;;5054366;28;20444;-69
2021/04/25 11:45:26;;;;;;;14.83;13.87;;;25.50;41.40;;;;;;5054033;28;20444;-69
2021/04/25 11:47:55;;;;;;;13.67;12.97;;;26.50;39.70;;;;;;5053897;28;20443;-68
2021/04/25 11:50:28;;;;;;;15.37;14.43;;;26.20;37.50;;;;;;5049242;28;20433;-68
2021/04/25 11:52:54;;;;;;;14.07;13.30;;;26.90;37.00;;;;;;5034332;28;20440;-68
2021/04/25 11:55:20;;;;;;;15.20;14.13;;;27.00;36.20;;;;;;5033427;28;20455;-68
2021/04/25 11:57:49;;;;;;;14.93;14.07;;;26.20;36.40;;;;;;5033788;28;20974;-68
2021/04/25 12:01:04;;;;;;;12.70;11.93;;;26.20;36.30;;;;;;5033986;28;20457;-69
2021/04/25 12:03:31;;;;;;;13.83;12.93;;;26.00;36.00;;;;;;5022853;28;20803;-72
2021/04/25 12:05:57;;;;;;;15.20;13.83;;;25.20;37.40;;;;;;5034287;28;20475;-72
2021/04/25 12:08:24;;;;;;;13.90;13.00;;;25.80;37.40;;;;;;5034065;28;20457;-72
2021/04/25 12:10:51;;;;;;;14.27;13.33;;;25.10;36.30;;;;;;5033987;28;20449;-72
2021/04/25 12:13:20;;;;;;;13.63;12.93;;;23.90;38.30;;;;;;5033929;28;20958;-73
2021/04/25 12:15:49;;;;;;;13.60;12.90;;;24.10;38.60;;;;;;5033916;28;20954;-72
2021/04/25 12:18:17;;;;;;;13.60;12.90;;;23.70;37.70;;;;;;5033764;28;20444;-73
2021/04/25 12:20:46;;;;;;;12.10;11.50;;;23.20;37.70;;;;;;5033489;28;20481;-73
2021/04/25 12:23:14;;;;;;;13.10;12.40;;;23.40;38.10;;;;;;5033802;28;20857;-72
2021/04/25 12:25:40;;;;;;;14.47;13.27;;;24.00;37.50;;;;;;5032956;28;20452;-72
2021/04/25 12:28:07;;;;;;;13.80;13.00;;;24.50;36.70;;;;;;5033686;28;20480;-70
2021/04/25 12:30:33;;;;;;;13.50;12.87;;;25.60;35.70;;;;;;5033240;28;20592;-70
2021/04/25 12:33:05;;;;;;;13.23;12.40;;;25.10;35.90;;;;;;5033283;28;20465;-71
2021/04/25 12:35:32;;;;;;;12.67;12.07;;;24.30;36.00;;;;;;5033749;28;20826;-72